Time;durP1;ratioP1;P1;durP2;ratioP2;P2;SDS_P1;SDS_P2;PMS_P1;PMS_P2;Temp;Humidity;BMP_temperature;BMP_pressure;BME280_temperature;BME280_humidity;BME280_pressure;Samples;Min_cycle;Max_cycle;Signal;HPM_P1;HPM_P2
2023/08/11 00:01:03;;;;;;;1.10;1.00;;;;;;;;;;5858897;28;20053;-84
2023/08/11 00:03:54;;;;;;;2.00;0.95;;;;;;;;;;5843811;28;20050;-84
2023/08/11 00:06:51;;;;;;;1.20;0.98;;;;;;;;;;5835651;28;20042;-85
2023/08/11 00:09:42;;;;;;;1.92;1.50;;;;;;;;;;5834945;28;20046;-82
2023/08/11 00:12:39;;;;;;;0.77;0.75;;;;;;;;;;5834955;28;20421;-82
2023/08/11 00:15:39;;;;;;;1.10;0.93;;;;;;;;;;5818204;28;20100;-82
2023/08/11 00:18:30;;;;;;;0.75;0.70;;;;;;;;;;5834042;28;20081;-83
2023/08/11 00:21:28;;;;;;;1.00;0.90;;;;;;;;;;5833549;28;20073;-81
2023/08/11 00:24:18;;;;;;;2.38;1.05;;;;;;;;;;5834015;28;20056;-84
2023/08/11 00:27:16;;;;;;;1.48;1.25;;;;;;;;;;5833791;28;20568;-82
2023/08/11 00:30:09;;;;;;;0.88;0.80;;;;;;;;;;5834258;28;20572;-81
2023/08/11 00:33:06;;;;;;;1.17;1.10;;;;;;;;;;5817956;28;20058;-81
2023/08/11 00:35:57;;;;;;;1.77;1.20;;;;;;;;;;5833620;28;20049;-81
2023/08/11 00:39:00;;;;;;;1.85;1.13;;;;;;;;;;5834026;28;20042;-88
2023/08/11 00:41:50;;;;;;;17.13;1.23;;;;;;;;;;5834078;28;20386;-84
2023/08/11 00:44:48;;;;;;;1.17;0.65;;;;;;;;;;5834888;28;20703;-81
2023/08/11 00:47:41;;;;;;;0.73;0.73;;;;;;;;;;5833713;28;20136;-84
2023/08/11 00:50:40;;;;;;;0.68;0.68;;;;;;;;;;5817915;28;20215;-84
2023/08/11 00:53:36;;;;;;;2.75;1.02;;;;;;;;;;5833911;28;20050;-81
2023/08/11 00:56:35;;;;;;;1.33;1.23;;;;;;;;;;5817885;28;20064;-84
2023/08/11 00:59:26;;;;;;;1.35;1.23;;;;;;;;;;5816901;28;20064;-84
2023/08/11 01:02:23;;;;;;;1.15;1.00;;;;;;;;;;5834240;28;20276;-81
2023/08/11 01:05:17;;;;;;;1.20;1.08;;;;;;;;;;5817108;28;20042;-83
2023/08/11 01:08:36;;;;;;;7.18;2.08;;;;;;;;;;5817499;28;20050;-84
2023/08/11 01:11:39;;;;;;;1.42;1.33;;;;;;;;;;5817652;28;20045;-81
2023/08/11 01:15:06;;;;;;;0.95;0.88;;;;;;;;;;5819352;28;20401;-81
2023/08/11 01:18:06;;;;;;;2.15;1.20;;;;;;;;;;5820700;28;20129;-83
2023/08/11 01:21:06;;;;;;;0.55;0.55;;;;;;;;;;5833504;28;20056;-80
2023/08/11 01:24:04;;;;;;;1.08;0.90;;;;;;;;;;5834212;28;20361;-85
2023/08/11 01:26:57;;;;;;;0.60;0.60;;;;;;;;;;5834679;28;20378;-85
2023/08/11 01:29:55;;;;;;;1.00;0.90;;;;;;;;;;5818621;28;20052;-84
2023/08/11 01:32:46;;;;;;;1.08;0.90;;;;;;;;;;5835165;28;20080;-81
2023/08/11 01:35:44;;;;;;;1.05;0.85;;;;;;;;;;5834798;28;20058;-87
2023/08/11 01:38:34;;;;;;;3.55;1.13;;;;;;;;;;5834522;28;20056;-82
2023/08/11 01:41:32;;;;;;;1.42;0.82;;;;;;;;;;5834932;28;20046;-81
2023/08/11 01:44:25;;;;;;;1.58;0.93;;;;;;;;;;5835733;28;20046;-81
2023/08/11 01:47:24;;;;;;;0.85;0.75;;;;;;;;;;5818208;28;20038;-81
2023/08/11 01:50:17;;;;;;;0.63;0.63;;;;;;;;;;5820053;28;20049;-84
2023/08/11 01:53:15;;;;;;;3.97;1.00;;;;;;;;;;5840440;28;20852;-83
2023/08/11 01:56:06;;;;;;;1.13;0.88;;;;;;;;;;5822816;28;20109;-85
2023/08/11 01:59:10;;;;;;;1.75;0.95;;;;;;;;;;5839821;28;20042;-81
2023/08/11 02:02:01;;;;;;;1.17;1.08;;;;;;;;;;5822648;28;20505;-81
2023/08/11 02:04:59;;;;;;;1.27;1.17;;;;;;;;;;5822851;28;20357;-83
2023/08/11 02:07:51;;;;;;;1.10;0.75;;;;;;;;;;5838606;28;20275;-83
2023/08/11 02:10:48;;;;;;;1.80;1.03;;;;;;;;;;5822340;28;20282;-80
2023/08/11 02:13:45;;;;;;;6.05;1.95;;;;;;;;;;5837324;28;20309;-84
2023/08/11 02:16:36;;;;;;;1.00;0.75;;;;;;;;;;5836613;28;20072;-84
2023/08/11 02:19:33;;;;;;;1.35;1.20;;;;;;;;;;5836356;28;20400;-79
2023/08/11 02:22:24;;;;;;;0.73;0.73;;;;;;;;;;5837378;28;20050;-84
2023/08/11 02:25:22;;;;;;;4.10;1.10;;;;;;;;;;5820593;28;20227;-84
2023/08/11 02:28:13;;;;;;;0.80;0.80;;;;;;;;;;5839803;28;20599;-80
2023/08/11 02:31:10;;;;;;;0.68;0.63;;;;;;;;;;5860375;28;20338;-85
2023/08/11 02:34:01;;;;;;;0.50;0.50;;;;;;;;;;5860961;28;20038;-82
2023/08/11 02:36:59;;;;;;;1.33;1.02;;;;;;;;;;5861535;28;20077;-83
2023/08/11 02:39:50;;;;;;;2.20;1.08;;;;;;;;;;5861741;28;20519;-85
2023/08/11 02:42:54;;;;;;;23.13;1.40;;;;;;;;;;5861328;28;20075;-80
2023/08/11 02:45:46;;;;;;;0.55;0.55;;;;;;;;;;5860831;28;20384;-85
2023/08/11 02:48:44;;;;;;;1.65;1.30;;;;;;;;;;5860018;28;20113;-82
2023/08/11 02:51:41;;;;;;;2.50;1.40;;;;;;;;;;5859688;28;20049;-83
2023/08/11 02:54:31;;;;;;;2.67;1.02;;;;;;;;;;5860087;28;20578;-80
2023/08/11 02:57:29;;;;;;;1.05;0.95;;;;;;;;;;5860928;28;20055;-83
2023/08/11 03:00:19;;;;;;;0.82;0.80;;;;;;;;;;5843006;28;20184;-83
2023/08/11 03:03:17;;;;;;;1.52;1.27;;;;;;;;;;5858967;28;20072;-81
2023/08/11 03:06:11;;;;;;;2.20;1.30;;;;;;;;;;5859574;28;20057;-80
2023/08/11 03:09:09;;;;;;;0.55;0.50;;;;;;;;;;5836828;28;20635;-85
2023/08/11 03:11:59;;;;;;;1.70;1.35;;;;;;;;;;5854221;28;20556;-84
2023/08/11 03:14:57;;;;;;;0.65;0.65;;;;;;;;;;5859151;28;20057;-80
2023/08/11 03:17:59;;;;;;;9.90;1.45;;;;;;;;;;5860510;28;20041;-81
2023/08/11 03:20:52;;;;;;;0.57;0.57;;;;;;;;;;5843683;28;20045;-83
2023/08/11 03:24:07;;;;;;;1.67;1.02;;;;;;;;;;5860431;28;20148;-78
2023/08/11 03:26:58;;;;;;;0.90;0.90;;;;;;;;;;5862343;28;20480;-80
2023/08/11 03:29:55;;;;;;;1.13;0.90;;;;;;;;;;5861591;28;20512;-82
2023/08/11 03:32:46;;;;;;;0.95;0.95;;;;;;;;;;5861168;28;20050;-81
2023/08/11 03:35:43;;;;;;;1.15;1.05;;;;;;;;;;5862511;28;20238;-79
2023/08/11 03:38:33;;;;;;;0.90;0.60;;;;;;;;;;5862255;28;20056;-80
2023/08/11 03:41:31;;;;;;;1.25;0.90;;;;;;;;;;5862620;28;20063;-83
2023/08/11 03:44:21;;;;;;;1.65;1.38;;;;;;;;;;5862560;28;20045;-79
2023/08/11 03:47:19;;;;;;;0.95;0.90;;;;;;;;;;5861581;28;20045;-81
2023/08/11 03:50:11;;;;;;;2.60;1.25;;;;;;;;;;5862762;28;20160;-80
2023/08/11 03:53:08;;;;;;;0.65;0.65;;;;;;;;;;5862312;28;20046;-80
2023/08/11 03:55:58;;;;;;;0.85;0.60;;;;;;;;;;5862590;28;20692;-80
2023/08/11 03:58:56;;;;;;;2.53;1.42;;;;;;;;;;5863958;28;20473;-81
2023/08/11 04:01:47;;;;;;;0.55;0.55;;;;;;;;;;5862636;28;20268;-80
2023/08/11 04:04:45;;;;;;;2.15;1.02;;;;;;;;;;5859573;28;20055;-81
2023/08/11 04:07:37;;;;;;;3.63;1.20;;;;;;;;;;5860190;28;20056;-81
2023/08/11 04:10:35;;;;;;;0.80;0.80;;;;;;;;;;5860167;28;20532;-81
2023/08/11 04:13:26;;;;;;;1.25;1.15;;;;;;;;;;5857832;28;20049;-82
2023/08/11 04:16:23;;;;;;;1.00;0.95;;;;;;;;;;5858907;28;20400;-80
2023/08/11 04:19:14;;;;;;;1.05;0.90;;;;;;;;;;5858069;28;20085;-80
2023/08/11 04:22:10;;;;;;;2.40;1.65;;;;;;;;;;5858480;28;20045;-81
2023/08/11 04:25:01;;;;;;;0.77;0.75;;;;;;;;;;5859741;28;20041;-80
2023/08/11 04:28:00;;;;;;;1.75;1.15;;;;;;;;;;5862783;28;20346;-82
2023/08/11 04:30:51;;;;;;;2.25;0.80;;;;;;;;;;5860835;28;20527;-80
2023/08/11 04:33:49;;;;;;;1.00;0.80;;;;;;;;;;5858826;28;20108;-82
2023/08/11 04:36:39;;;;;;;1.60;1.50;;;;;;;;;;5857965;28;20049;-81
2023/08/11 04:39:37;;;;;;;2.33;1.35;;;;;;;;;;5858309;28;20337;-79
2023/08/11 04:42:27;;;;;;;0.65;0.65;;;;;;;;;;5858347;28;20407;-81
2023/08/11 04:45:26;;;;;;;16.50;1.23;;;;;;;;;;5857457;28;20060;-82
2023/08/11 04:48:24;;;;;;;;;;;;;;;;;;5857733;28;20042;-81
2023/08/11 04:51:14;;;;;;;0.80;0.77;;;;;;;;;;5857432;28;19921;-83
2023/08/11 04:54:12;;;;;;;1.45;1.35;;;;;;;;;;5857501;28;20481;-83
2023/08/11 04:57:03;;;;;;;5.45;1.65;;;;;;;;;;5858477;28;20136;-81
2023/08/11 05:00:01;;;;;;;0.90;0.90;;;;;;;;;;5842111;28;20048;-86
2023/08/11 05:02:56;;;;;;;2.33;1.38;;;;;;;;;;5860328;28;20050;-85
2023/08/11 05:05:53;;;;;;;3.97;1.73;;;;;;;;;;5858784;28;20054;-83
2023/08/11 05:08:50;;;;;;;1.70;1.20;;;;;;;;;;5859891;28;20116;-85
2023/08/11 05:11:40;;;;;;;2.35;1.77;;;;;;;;;;5860955;28;20105;-85
2023/08/11 05:14:38;;;;;;;11.52;2.60;;;;;;;;;;5859760;28;20136;-83
2023/08/11 05:17:28;;;;;;;2.42;2.22;;;;;;;;;;5859657;28;20059;-85
2023/08/11 05:20:26;;;;;;;4.18;2.17;;;;;;;;;;5858499;28;20046;-83
2023/08/11 05:23:23;;;;;;;9.00;3.30;;;;;;;;;;5859468;28;20049;-84
2023/08/11 05:26:13;;;;;;;2.55;2.25;;;;;;;;;;5861592;28;20050;-85
2023/08/11 05:29:10;;;;;;;4.38;2.63;;;;;;;;;;5862780;28;20045;-85
2023/08/11 05:32:02;;;;;;;2.60;1.73;;;;;;;;;;5860617;28;20144;-82
2023/08/11 05:35:00;;;;;;;6.57;2.33;;;;;;;;;;5861970;28;20661;-82
2023/08/11 05:37:51;;;;;;;2.08;1.70;;;;;;;;;;5844024;28;20120;-82
2023/08/11 05:40:49;;;;;;;1.55;1.42;;;;;;;;;;5861257;28;20323;-81
2023/08/11 05:43:40;;;;;;;2.35;1.42;;;;;;;;;;5860328;28;20049;-83
2023/08/11 05:46:38;;;;;;;4.47;2.30;;;;;;;;;;5860744;28;20055;-81
2023/08/11 05:49:29;;;;;;;7.10;2.50;;;;;;;;;;5859970;28;20107;-82
2023/08/11 05:52:26;;;;;;;3.08;2.58;;;;;;;;;;5860253;28;20041;-83
2023/08/11 05:55:16;;;;;;;2.40;1.60;;;;;;;;;;5860412;28;20477;-80
2023/08/11 05:58:14;;;;;;;4.15;2.22;;;;;;;;;;5861169;28;20642;-84
2023/08/11 06:01:04;;;;;;;4.00;1.58;;;;;;;;;;5859839;28;20053;-83
2023/08/11 06:04:03;;;;;;;2.60;1.67;;;;;;;;;;5862931;28;20050;-81
2023/08/11 06:06:54;;;;;;;3.15;2.10;;;;;;;;;;5863548;28;20124;-83
2023/08/11 06:09:52;;;;;;;11.05;2.00;;;;;;;;;;5863135;28;20085;-83
2023/08/11 06:12:42;;;;;;;2.13;1.88;;;;;;;;;;5864191;28;20053;-81
2023/08/11 06:15:40;;;;;;;3.25;2.63;;;;;;;;;;5864717;28;20506;-82
2023/08/11 06:18:30;;;;;;;2.22;1.27;;;;;;;;;;5865641;28;20049;-82
2023/08/11 06:21:28;;;;;;;3.58;1.73;;;;;;;;;;5863965;28;20403;-81
2023/08/11 06:24:20;;;;;;;6.43;2.47;;;;;;;;;;5863080;28;20042;-84
2023/08/11 06:27:16;;;;;;;1.60;1.48;;;;;;;;;;5861828;28;20045;-84
2023/08/11 06:30:09;;;;;;;2.97;1.40;;;;;;;;;;5862177;28;20503;-81
2023/08/11 06:33:06;;;;;;;4.65;2.28;;;;;;;;;;5845722;28;20372;-79
2023/08/11 06:35:57;;;;;;;3.03;1.63;;;;;;;;;;5863535;28;20049;-82
2023/08/11 06:38:54;;;;;;;2.83;1.92;;;;;;;;;;5864071;28;20092;-83
2023/08/11 06:41:45;;;;;;;6.97;1.90;;;;;;;;;;5863625;28;20060;-82
2023/08/11 06:44:44;;;;;;;2.63;1.45;;;;;;;;;;5864162;28;20075;-82
2023/08/11 06:47:35;;;;;;;4.78;1.40;;;;;;;;;;5862294;28;20666;-82
2023/08/11 06:50:33;;;;;;;1.85;1.38;;;;;;;;;;5862659;28;20045;-80
2023/08/11 06:53:24;;;;;;;2.25;1.00;;;;;;;;;;5860977;28;20502;-83
2023/08/11 06:56:22;;;;;;;1.23;1.10;;;;;;;;;;5861427;28;20049;-83
2023/08/11 06:59:12;;;;;;;2.00;1.52;;;;;;;;;;5861554;28;20049;-80
2023/08/11 07:02:09;;;;;;;2.17;1.58;;;;;;;;;;5861278;28;20053;-84
2023/08/11 07:05:02;;;;;;;2.30;1.60;;;;;;;;;;5861734;28;20045;-83
2023/08/11 07:08:00;;;;;;;10.85;1.63;;;;;;;;;;5860806;28;20049;-82
2023/08/11 07:10:57;;;;;;;2.55;1.23;;;;;;;;;;5863620;28;20477;-79
2023/08/11 07:13:48;;;;;;;3.15;0.75;;;;;;;;;;5863532;28;20128;-83
2023/08/11 07:16:45;;;;;;;2.78;1.58;;;;;;;;;;5864068;28;20485;-84
2023/08/11 07:19:36;;;;;;;1.13;1.02;;;;;;;;;;5862230;28;20388;-83
2023/08/11 07:22:34;;;;;;;5.03;1.48;;;;;;;;;;5860501;28;20128;-83
2023/08/11 07:25:24;;;;;;;1.58;1.33;;;;;;;;;;5861714;28;20423;-82
2023/08/11 07:28:21;;;;;;;3.95;1.48;;;;;;;;;;5859842;28;20480;-83
2023/08/11 07:31:12;;;;;;;2.33;1.33;;;;;;;;;;5860737;28;20051;-83
2023/08/11 07:34:10;;;;;;;0.82;0.82;;;;;;;;;;5859844;28;20131;-83
2023/08/11 07:37:00;;;;;;;2.88;1.80;;;;;;;;;;5862781;28;20041;-83
2023/08/11 07:39:58;;;;;;;5.45;2.53;;;;;;;;;;5843312;28;20052;-83
2023/08/11 07:42:49;;;;;;;2.83;1.60;;;;;;;;;;5859679;28;20045;-84
2023/08/11 07:45:47;;;;;;;3.20;1.92;;;;;;;;;;5859594;28;20072;-83
2023/08/11 07:48:37;;;;;;;2.17;0.90;;;;;;;;;;5858479;28;20100;-83
2023/08/11 07:51:34;;;;;;;2.22;1.33;;;;;;;;;;5858556;28;20060;-83
2023/08/11 07:54:25;;;;;;;4.32;1.63;;;;;;;;;;5858159;28;20045;-83
2023/08/11 07:57:23;;;;;;;6.90;2.17;;;;;;;;;;5842320;28;20068;-82
2023/08/11 08:00:19;;;;;;;3.03;0.75;;;;;;;;;;5858512;28;20496;-83
2023/08/11 08:03:16;;;;;;;1.45;1.20;;;;;;;;;;5858033;28;20455;-81
2023/08/11 08:06:09;;;;;;;3.13;1.20;;;;;;;;;;5857485;28;20192;-84
2023/08/11 08:09:10;;;;;;;3.87;2.47;;;;;;;;;;5856368;28;20093;-85
2023/08/11 08:12:04;;;;;;;2.08;1.10;;;;;;;;;;5857993;28;20288;-83
2023/08/11 08:15:07;;;;;;;4.65;1.27;;;;;;;;;;5841396;28;20041;-82
2023/08/11 08:17:57;;;;;;;9.93;1.77;;;;;;;;;;5857762;28;20088;-84
2023/08/11 08:20:55;;;;;;;4.13;1.27;;;;;;;;;;5859499;28;20049;-83
2023/08/11 08:23:51;;;;;;;3.83;1.70;;;;;;;;;;5857366;28;20132;-83
2023/08/11 08:26:43;;;;;;;3.17;1.10;;;;;;;;;;5857082;28;20100;-81
2023/08/11 08:29:40;;;;;;;;;;;;;;;;;;5858862;28;20045;-84
2023/08/11 08:32:33;;;;;;;9.50;2.13;;;;;;;;;;5840196;28;19921;-84
2023/08/11 08:35:31;;;;;;;3.05;1.23;;;;;;;;;;5857624;28;20051;-83
2023/08/11 08:38:21;;;;;;;6.13;1.50;;;;;;;;;;5857675;28;20399;-82
2023/08/11 08:41:23;;;;;;;5.72;1.60;;;;;;;;;;5857198;28;20057;-82
2023/08/11 08:44:14;;;;;;;5.88;1.50;;;;;;;;;;5856683;28;20045;-83
2023/08/11 08:47:12;;;;;;;2.28;1.40;;;;;;;;;;5856702;28;20511;-82
2023/08/11 08:50:05;;;;;;;8.13;2.05;;;;;;;;;;5838963;28;20045;-83
2023/08/11 08:53:02;;;;;;;3.25;1.85;;;;;;;;;;5856690;28;20088;-82
2023/08/11 08:55:53;;;;;;;3.10;1.30;;;;;;;;;;5856573;28;20615;-84
2023/08/11 08:58:50;;;;;;;2.67;0.90;;;;;;;;;;5856780;28;20049;-82
2023/08/11 09:01:41;;;;;;;3.85;1.40;;;;;;;;;;5860568;28;20041;-83
2023/08/11 09:04:40;;;;;;;4.22;1.45;;;;;;;;;;5846965;28;20068;-82
2023/08/11 09:07:31;;;;;;;2.42;0.73;;;;;;;;;;5862489;28;20049;-84
2023/08/11 09:10:29;;;;;;;1.88;1.02;;;;;;;;;;5861811;28;20045;-82
2023/08/11 09:13:26;;;;;;;2.10;0.80;;;;;;;;;;5863851;28;20049;-84
2023/08/11 09:16:24;;;;;;;2.15;1.17;;;;;;;;;;5861566;28;20048;-83
2023/08/11 09:19:15;;;;;;;1.63;1.10;;;;;;;;;;5864933;28;20073;-83
2023/08/11 09:22:12;;;;;;;0.80;0.40;;;;;;;;;;5845838;28;20053;-82
2023/08/11 09:25:04;;;;;;;1.20;0.70;;;;;;;;;;5861462;28;20477;-83
2023/08/11 09:28:02;;;;;;;3.33;0.52;;;;;;;;;;5844329;28;20396;-82
2023/08/11 09:30:54;;;;;;;3.92;1.48;;;;;;;;;;5861034;28;20535;-82
2023/08/11 09:33:52;;;;;;;1.77;0.95;;;;;;;;;;5862838;28;20045;-80
2023/08/11 09:36:45;;;;;;;3.88;1.27;;;;;;;;;;5862105;28;20132;-80
2023/08/11 09:39:42;;;;;;;4.40;1.63;;;;;;;;;;5847164;28;20049;-83
2023/08/11 09:42:33;;;;;;;4.07;1.58;;;;;;;;;;5861706;28;20056;-82
2023/08/11 09:45:32;;;;;;;;;;;;;;;;;;5861180;28;20045;-84
2023/08/11 09:48:22;;;;;;;3.00;1.08;;;;;;;;;;5862417;28;20344;-83
2023/08/11 09:51:20;;;;;;;8.70;1.55;;;;;;;;;;5862083;28;20569;-84
2023/08/11 09:54:11;;;;;;;4.97;1.40;;;;;;;;;;5861436;28;20049;-84
2023/08/11 09:57:10;;;;;;;6.13;1.90;;;;;;;;;;5860892;28;20569;-84
2023/08/11 10:00:03;;;;;;;4.65;1.05;;;;;;;;;;5843124;28;20496;-85
2023/08/11 10:03:06;;;;;;;1.83;1.05;;;;;;;;;;5861214;28;20046;-83
2023/08/11 10:05:59;;;;;;;1.25;0.70;;;;;;;;;;5861562;28;20100;-83
2023/08/11 10:09:02;;;;;;;1.98;1.08;;;;;;;;;;5842855;28;20051;-82
2023/08/11 10:11:56;;;;;;;1.20;0.77;;;;;;;;;;5842861;28;20626;-84
2023/08/11 10:14:55;;;;;;;1.80;0.98;;;;;;;;;;5845904;28;20052;-86
2023/08/11 10:17:45;;;;;;;5.05;1.08;;;;;;;;;;5846439;28;20056;-85
2023/08/11 10:20:50;;;;;;;2.58;0.95;;;;;;;;;;5846053;28;20136;-83
2023/08/11 10:23:41;;;;;;;;;;;;;;;;;;5848270;28;20041;-83
2023/08/11 10:26:39;;;;;;;1.48;0.73;;;;;;;;;;5860927;28;19925;-82
2023/08/11 10:29:30;;;;;;;2.78;0.93;;;;;;;;;;5863768;28;20412;-84
2023/08/11 10:32:34;;;;;;;2.58;1.25;;;;;;;;;;5845406;28;20052;-81
2023/08/11 10:35:32;;;;;;;;;;;;;;;;;;5860299;28;20587;-82
2023/08/11 10:38:32;;;;;;;1.52;1.20;;;;;;;;;;5845434;28;19932;-84
2023/08/11 10:41:23;;;;;;;2.42;1.00;;;;;;;;;;5860679;28;20278;-84
2023/08/11 10:44:28;;;;;;;1.25;0.80;;;;;;;;;;5860182;28;20564;-83
2023/08/11 10:47:19;;;;;;;5.78;1.10;;;;;;;;;;5842219;28;20049;-83
2023/08/11 10:50:18;;;;;;;9.20;1.95;;;;;;;;;;5843509;28;20173;-79
2023/08/11 10:53:20;;;;;;;2.58;0.90;;;;;;;;;;5842697;28;20053;-81
2023/08/11 10:56:31;;;;;;;1.35;0.95;;;;;;;;;;5843476;28;20051;-83
2023/08/11 10:59:30;;;;;;;3.30;1.35;;;;;;;;;;5858986;28;20053;-82
2023/08/11 11:02:29;;;;;;;1.25;0.73;;;;;;;;;;5842772;28;20136;-83
2023/08/11 11:05:21;;;;;;;2.72;1.05;;;;;;;;;;5858467;28;20686;-83
2023/08/11 11:08:18;;;;;;;0.90;0.68;;;;;;;;;;5859522;28;20057;-84
2023/08/11 11:11:09;;;;;;;8.38;1.35;;;;;;;;;;5859660;28;20136;-84
2023/08/11 11:14:09;;;;;;;1.92;0.82;;;;;;;;;;5858530;28;20572;-83
2023/08/11 11:17:00;;;;;;;1.05;0.73;;;;;;;;;;5859560;28;20661;-84
2023/08/11 11:19:57;;;;;;;1.90;1.07;;;;;;;;;;5858688;28;20053;-81
2023/08/11 11:22:53;;;;;;;1.98;0.60;;;;;;;;;;5840693;28;20057;-83
2023/08/11 11:25:51;;;;;;;1.33;1.00;;;;;;;;;;5841747;28;20049;-86
2023/08/11 11:28:42;;;;;;;1.70;0.80;;;;;;;;;;5858696;28;20050;-82
2023/08/11 11:31:40;;;;;;;2.83;1.33;;;;;;;;;;5861606;28;20125;-82
2023/08/11 11:34:36;;;;;;;3.50;0.90;;;;;;;;;;5859794;28;20056;-84
2023/08/11 11:37:33;;;;;;;7.00;0.90;;;;;;;;;;5860614;28;20045;-80
2023/08/11 11:40:24;;;;;;;1.50;0.93;;;;;;;;;;5843418;28;20631;-83
2023/08/11 11:43:21;;;;;;;1.58;0.70;;;;;;;;;;5858025;28;20046;-84
2023/08/11 11:46:16;;;;;;;1.63;1.05;;;;;;;;;;5858831;28;20103;-82
2023/08/11 11:49:15;;;;;;;3.00;0.65;;;;;;;;;;5845933;28;20053;-83
2023/08/11 11:52:20;;;;;;;2.78;0.90;;;;;;;;;;5860615;28;20538;-84
2023/08/11 11:55:17;;;;;;;1.00;0.68;;;;;;;;;;5858776;28;20377;-83
2023/08/11 11:58:07;;;;;;;2.58;0.60;;;;;;;;;;5860178;28;20401;-84
2023/08/11 12:01:21;;;;;;;5.07;2.45;;;;;;;;;;5842019;28;20049;-84
2023/08/11 12:04:12;;;;;;;54.90;18.33;;;;;;;;;;5858907;28;20366;-82
2023/08/11 12:07:27;;;;;;;2.50;1.33;;;;;;;;;;5859800;28;20047;-83
2023/08/11 12:10:21;;;;;;;1.67;0.55;;;;;;;;;;5859313;28;20038;-80
2023/08/11 12:13:17;;;;;;;0.77;0.40;;;;;;;;;;5856342;28;20180;-85
2023/08/11 12:16:10;;;;;;;1.20;0.40;;;;;;;;;;5858058;28;20710;-84
2023/08/11 12:19:08;;;;;;;2.38;0.95;;;;;;;;;;5857611;28;20056;-83
2023/08/11 12:22:01;;;;;;;1.65;0.52;;;;;;;;;;5857734;28;20037;-84
2023/08/11 12:24:59;;;;;;;0.70;0.35;;;;;;;;;;5857088;28;20050;-82
2023/08/11 12:27:53;;;;;;;0.52;0.20;;;;;;;;;;5857811;28;20045;-84
2023/08/11 12:30:50;;;;;;;1.35;0.30;;;;;;;;;;5841734;28;20052;-86
2023/08/11 12:33:41;;;;;;;0.20;0.20;;;;;;;;;;5856567;28;20055;-82
2023/08/11 12:36:38;;;;;;;1.70;1.13;;;;;;;;;;5858365;28;20044;-85
2023/08/11 12:39:29;;;;;;;0.95;0.75;;;;;;;;;;5856991;28;20301;-84
2023/08/11 12:42:26;;;;;;;0.73;0.30;;;;;;;;;;5857152;28;20049;-83
2023/08/11 12:45:17;;;;;;;0.65;0.50;;;;;;;;;;5856463;28;20042;-84
2023/08/11 12:48:15;;;;;;;0.85;0.70;;;;;;;;;;5856619;28;20413;-85
2023/08/11 12:51:06;;;;;;;1.55;0.68;;;;;;;;;;5856959;28;20052;-84
2023/08/11 12:54:03;;;;;;;;;;;;;;;;;;5856701;28;20041;-81
2023/08/11 12:56:54;;;;;;;0.90;0.80;;;;;;;;;;5855832;28;19922;-83
2023/08/11 12:59:51;;;;;;;3.40;0.68;;;;;;;;;;5856347;28;20191;-80
2023/08/11 13:02:48;;;;;;;2.83;0.50;;;;;;;;;;5857054;28;20057;-81
2023/08/11 13:05:39;;;;;;;0.90;0.52;;;;;;;;;;5854338;28;20967;-82
2023/08/11 13:08:36;;;;;;;1.23;0.40;;;;;;;;;;5879739;28;20041;-81
2023/08/11 13:11:27;;;;;;;0.65;0.50;;;;;;;;;;5866506;28;20052;-81
2023/08/11 13:14:24;;;;;;;1.05;0.60;;;;;;;;;;5855348;28;20128;-82
2023/08/11 13:17:21;;;;;;;6.60;0.87;;;;;;;;;;5855180;28;20181;-81
2023/08/11 13:20:13;;;;;;;6.07;1.33;;;;;;;;;;5876846;28;20049;-82
2023/08/11 13:23:11;;;;;;;6.68;1.40;;;;;;;;;;5855794;28;20045;-82
2023/08/11 13:26:02;;;;;;;2.63;0.85;;;;;;;;;;5856146;28;20053;-82
2023/08/11 13:28:59;;;;;;;1.38;0.98;;;;;;;;;;5846712;28;20045;-83
2023/08/11 13:31:50;;;;;;;1.70;0.50;;;;;;;;;;5864023;28;20585;-80
2023/08/11 13:34:48;;;;;;;0.45;0.45;;;;;;;;;;5855220;28;20473;-80
2023/08/11 13:37:39;;;;;;;3.05;0.70;;;;;;;;;;5863580;28;20674;-83
2023/08/11 13:40:36;;;;;;;1.08;0.57;;;;;;;;;;5873289;28;20461;-82
2023/08/11 13:43:30;;;;;;;1.48;0.60;;;;;;;;;;5855541;28;20042;-80
2023/08/11 13:46:30;;;;;;;0.90;0.77;;;;;;;;;;5856753;28;20049;-82
2023/08/11 13:49:20;;;;;;;1.02;0.93;;;;;;;;;;5858616;28;20038;-81
2023/08/11 13:52:17;;;;;;;3.63;1.50;;;;;;;;;;5863198;28;20426;-82
2023/08/11 13:55:08;;;;;;;1.95;0.63;;;;;;;;;;5859040;28;20052;-80
2023/08/11 13:58:05;;;;;;;3.28;0.30;;;;;;;;;;5859655;28;20045;-83
2023/08/11 14:00:56;;;;;;;6.15;1.45;;;;;;;;;;5864355;28;20052;-82
2023/08/11 14:03:54;;;;;;;1.40;0.77;;;;;;;;;;5860093;28;20557;-83
2023/08/11 14:06:44;;;;;;;0.40;0.40;;;;;;;;;;5859831;28;20038;-83
2023/08/11 14:09:41;;;;;;;0.73;0.57;;;;;;;;;;5860980;28;20061;-82
2023/08/11 14:12:33;;;;;;;1.00;0.73;;;;;;;;;;5860116;28;20052;-81
2023/08/11 14:15:30;;;;;;;0.50;0.50;;;;;;;;;;5880854;28;20057;-81
2023/08/11 14:18:21;;;;;;;2.70;1.35;;;;;;;;;;5881439;28;20488;-83
2023/08/11 14:21:18;;;;;;;2.83;0.70;;;;;;;;;;5853309;28;20054;-84
2023/08/11 14:24:09;;;;;;;2.03;0.75;;;;;;;;;;5857822;28;20103;-82
2023/08/11 14:27:06;;;;;;;4.20;0.70;;;;;;;;;;5863436;28;20053;-81
2023/08/11 14:29:57;;;;;;;3.58;1.10;;;;;;;;;;5858179;28;20057;-80
2023/08/11 14:32:54;;;;;;;0.40;0.40;;;;;;;;;;5858025;28;20053;-82
2023/08/11 14:35:45;;;;;;;22.83;1.25;;;;;;;;;;5865598;28;20300;-83
2023/08/11 14:38:42;;;;;;;0.90;0.75;;;;;;;;;;5857651;28;20045;-81
2023/08/11 14:41:34;;;;;;;2.95;1.02;;;;;;;;;;5857695;28;20110;-81
2023/08/11 14:44:30;;;;;;;1.10;0.90;;;;;;;;;;5857699;28;20132;-83
2023/08/11 14:47:21;;;;;;;1.70;0.95;;;;;;;;;;5858439;28;20579;-81
2023/08/11 14:50:18;;;;;;;1.35;0.50;;;;;;;;;;5860020;28;20048;-81
2023/08/11 14:53:09;;;;;;;0.40;0.40;;;;;;;;;;5859932;28;20125;-82
2023/08/11 14:56:06;;;;;;;0.40;0.40;;;;;;;;;;5873696;28;20049;-82
2023/08/11 14:58:58;;;;;;;1.00;0.70;;;;;;;;;;5857459;28;20298;-82
2023/08/11 15:01:55;;;;;;;2.42;0.40;;;;;;;;;;5858778;28;20772;-83
2023/08/11 15:04:46;;;;;;;4.47;0.93;;;;;;;;;;5872779;28;20041;-81
2023/08/11 15:07:43;;;;;;;1.48;0.93;;;;;;;;;;5860377;28;20067;-82
2023/08/11 15:10:35;;;;;;;0.40;0.38;;;;;;;;;;5860219;28;20421;-83
2023/08/11 15:13:32;;;;;;;0.75;0.55;;;;;;;;;;5859471;28;20049;-81
2023/08/11 15:16:23;;;;;;;4.65;1.17;;;;;;;;;;5869549;28;20041;-80
2023/08/11 15:19:20;;;;;;;0.43;0.40;;;;;;;;;;5857498;28;20057;-81
2023/08/11 15:22:11;;;;;;;2.78;1.35;;;;;;;;;;5856577;28;20418;-80
2023/08/11 15:25:09;;;;;;;2.73;1.10;;;;;;;;;;5856636;28;20069;-81
2023/08/11 15:27:59;;;;;;;0.70;0.40;;;;;;;;;;5858077;28;20588;-81
2023/08/11 15:30:56;;;;;;;0.45;0.40;;;;;;;;;;5856401;28;20050;-80
2023/08/11 15:33:47;;;;;;;0.90;0.50;;;;;;;;;;5857571;28;20049;-80
2023/08/11 15:36:44;;;;;;;0.50;0.50;;;;;;;;;;5867261;28;20057;-83
2023/08/11 15:39:41;;;;;;;1.45;0.43;;;;;;;;;;5857841;28;20057;-81
2023/08/11 15:42:32;;;;;;;0.70;0.63;;;;;;;;;;5855719;28;20053;-80
2023/08/11 15:45:29;;;;;;;2.80;0.87;;;;;;;;;;5856214;28;20044;-83
2023/08/11 15:48:20;;;;;;;1.13;0.70;;;;;;;;;;5856112;28;20050;-82
2023/08/11 15:51:18;;;;;;;3.45;1.33;;;;;;;;;;5838997;28;20115;-82
2023/08/11 15:54:30;;;;;;;0.70;0.60;;;;;;;;;;5855805;28;20057;-82
2023/08/11 15:57:34;;;;;;;2.10;0.93;;;;;;;;;;5858473;28;20049;-81
2023/08/11 16:00:24;;;;;;;0.85;0.57;;;;;;;;;;5856044;28;20045;-80
2023/08/11 16:03:21;;;;;;;1.65;0.63;;;;;;;;;;5856297;28;20049;-82
2023/08/11 16:06:12;;;;;;;5.95;1.30;;;;;;;;;;5856543;28;20500;-80
2023/08/11 16:09:09;;;;;;;20.15;1.08;;;;;;;;;;5854587;28;20444;-83
2023/08/11 16:12:00;;;;;;;3.42;1.13;;;;;;;;;;5854796;28;20598;-82
2023/08/11 16:14:58;;;;;;;3.95;2.95;;;;;;;;;;5850516;28;20134;-81
2023/08/11 16:17:52;;;;;;;7.03;4.93;;;;;;;;;;5854505;28;20128;-84
2023/08/11 16:20:49;;;;;;;7.30;3.42;;;;;;;;;;5854802;28;20046;-85
2023/08/11 16:23:40;;;;;;;5.70;3.92;;;;;;;;;;5854643;28;20635;-82
2023/08/11 16:26:39;;;;;;;3.58;2.00;;;;;;;;;;5864325;28;20052;-83
2023/08/11 16:29:30;;;;;;;2.45;1.60;;;;;;;;;;5854682;28;20045;-82
2023/08/11 16:32:27;;;;;;;6.10;1.50;;;;;;;;;;5854542;28;20041;-84
2023/08/11 16:35:18;;;;;;;2.40;0.88;;;;;;;;;;5854460;28;20045;-79
2023/08/11 16:38:15;;;;;;;1.17;0.90;;;;;;;;;;5854949;28;20055;-84
2023/08/11 16:41:06;;;;;;;0.65;0.60;;;;;;;;;;5854466;28;20434;-82
2023/08/11 16:44:04;;;;;;;2.95;1.15;;;;;;;;;;5857238;28;20666;-83
2023/08/11 16:46:54;;;;;;;3.38;0.93;;;;;;;;;;5861867;28;20045;-83
2023/08/11 16:49:51;;;;;;;1.50;1.02;;;;;;;;;;5854581;28;20507;-84
2023/08/11 16:52:42;;;;;;;1.55;1.10;;;;;;;;;;5854804;28;20125;-80
2023/08/11 16:55:40;;;;;;;2.05;0.70;;;;;;;;;;5853945;28;20037;-84
2023/08/11 16:58:30;;;;;;;3.95;1.23;;;;;;;;;;5854910;28;20476;-83
2023/08/11 17:01:27;;;;;;;0.70;0.70;;;;;;;;;;5853868;28;20056;-81
2023/08/11 17:04:18;;;;;;;1.52;1.35;;;;;;;;;;5854718;28;20049;-81
2023/08/11 17:07:17;;;;;;;0.80;0.68;;;;;;;;;;5859482;28;20157;-85
2023/08/11 17:10:08;;;;;;;1.75;0.88;;;;;;;;;;5836552;28;20076;-83
2023/08/11 17:13:05;;;;;;;1.70;1.05;;;;;;;;;;5854427;28;20153;-82
2023/08/11 17:15:56;;;;;;;4.50;1.10;;;;;;;;;;5853909;28;20052;-82
2023/08/11 17:18:54;;;;;;;1.50;1.20;;;;;;;;;;5854368;28;20349;-84
2023/08/11 17:21:44;;;;;;;0.80;0.63;;;;;;;;;;5839642;28;20042;-85
2023/08/11 17:24:44;;;;;;;7.25;1.33;;;;;;;;;;5859318;28;20064;-84
2023/08/11 17:27:40;;;;;;;6.45;3.00;;;;;;;;;;5862397;28;20076;-81
2023/08/11 17:30:40;;;;;;;7.90;3.00;;;;;;;;;;5828618;28;20084;-83
2023/08/11 17:33:34;;;;;;;2.42;1.30;;;;;;;;;;5859814;28;20532;-84